Time;durP1;ratioP1;P1;durP2;ratioP2;P2;SDS_P1;SDS_P2;PMS_P1;PMS_P2;Temp;Humidity;BMP_temperature;BMP_pressure;BME280_temperature;BME280_humidity;BME280_pressure;Samples;Min_cycle;Max_cycle;Signal;HPM_P1;HPM_P2
2023/02/28 00:01:22;;;;;;;3.23;2.90;;;0.80;1.00;;;;;;5034724;28;20491;-41
2023/02/28 00:03:48;;;;;;;5.30;3.40;;;0.80;1.00;;;;;;5034169;28;20420;-41
2023/02/28 00:06:14;;;;;;;3.40;3.10;;;0.80;1.00;;;;;;5033184;28;20437;-39
2023/02/28 00:08:40;;;;;;;6.23;3.63;;;0.80;1.00;;;;;;5034768;28;20179;-41
2023/02/28 00:11:09;;;;;;;3.70;3.07;;;0.80;1.00;;;;;;5034320;28;20190;-41
2023/02/28 00:13:37;;;;;;;4.50;3.03;;;0.80;1.00;;;;;;5034483;28;20421;-41
2023/02/28 00:16:05;;;;;;;3.60;2.80;;;0.70;1.00;;;;;;5034837;28;20487;-41
2023/02/28 00:18:31;;;;;;;5.33;3.20;;;0.70;1.00;;;;;;5033968;28;20728;-41
2023/02/28 00:20:58;;;;;;;5.10;3.50;;;0.70;1.00;;;;;;5034542;28;20585;-41
2023/02/28 00:23:24;;;;;;;5.40;3.60;;;0.70;1.00;;;;;;5035844;28;20521;-42
2023/02/28 00:25:50;;;;;;;5.30;3.13;;;0.70;1.00;;;;;;5035552;28;20413;-41
2023/02/28 00:28:16;;;;;;;3.23;2.83;;;0.60;1.00;;;;;;5036073;28;20409;-42
2023/02/28 00:30:42;;;;;;;4.57;3.40;;;0.60;1.00;;;;;;5034055;28;20481;-41
2023/02/28 00:33:08;;;;;;;4.87;3.80;;;0.60;1.00;;;;;;5036087;28;20675;-41
2023/02/28 00:35:34;;;;;;;4.33;3.57;;;0.60;1.00;;;;;;5035355;28;20516;-41
2023/02/28 00:37:59;;;;;;;4.80;3.33;;;0.60;1.00;;;;;;5035501;28;20643;-42
2023/02/28 00:40:25;;;;;;;3.30;3.00;;;0.50;1.00;;;;;;5034411;28;20253;-41
2023/02/28 00:42:51;;;;;;;4.30;3.33;;;0.50;1.00;;;;;;5038100;28;20201;-42
2023/02/28 00:45:16;;;;;;;3.73;2.87;;;0.50;1.00;;;;;;5040340;28;20178;-40
2023/02/28 00:47:42;;;;;;;4.77;3.53;;;0.50;1.00;;;;;;5040249;28;20615;-43
2023/02/28 00:50:09;;;;;;;4.10;3.40;;;0.50;1.00;;;;;;5040540;28;20736;-45
2023/02/28 00:52:34;;;;;;;4.00;3.13;;;0.40;1.00;;;;;;5040147;28;20182;-44
2023/02/28 00:55:00;;;;;;;3.90;3.50;;;0.40;1.00;;;;;;5040219;28;20440;-44
2023/02/28 00:57:26;;;;;;;4.03;3.40;;;0.40;1.00;;;;;;5040371;28;20244;-42
2023/02/28 00:59:54;;;;;;;4.03;2.77;;;0.40;1.00;;;;;;5040096;28;20522;-43
2023/02/28 01:02:20;;;;;;;5.03;3.73;;;0.40;1.00;;;;;;5038513;28;20186;-43
2023/02/28 01:04:46;;;;;;;4.40;3.13;;;0.30;1.00;;;;;;5039731;28;20447;-42
2023/02/28 01:07:14;;;;;;;3.10;2.80;;;0.30;1.00;;;;;;5039825;28;20456;-42
2023/02/28 01:09:41;;;;;;;5.23;3.93;;;0.30;1.00;;;;;;5040080;28;20504;-42
2023/02/28 01:12:08;;;;;;;5.30;3.37;;;0.30;1.00;;;;;;5039718;28;20603;-42
2023/02/28 01:14:35;;;;;;;4.70;3.73;;;0.30;1.00;;;;;;5039625;28;20504;-41
2023/02/28 01:17:00;;;;;;;3.70;3.30;;;0.30;1.00;;;;;;5039683;28;20472;-41
2023/02/28 01:19:26;;;;;;;3.53;3.00;;;0.20;1.00;;;;;;5039498;28;20425;-42
2023/02/28 01:21:52;;;;;;;6.20;3.60;;;0.20;1.00;;;;;;5039424;28;20182;-42
2023/02/28 01:24:18;;;;;;;4.13;3.30;;;0.20;1.00;;;;;;5039626;28;20236;-41
2023/02/28 01:26:43;;;;;;;4.13;3.10;;;0.20;1.00;;;;;;5038642;28;20186;-41
2023/02/28 01:29:09;;;;;;;4.10;3.17;;;0.20;1.00;;;;;;5036784;28;20472;-43
2023/02/28 01:31:34;;;;;;;4.83;3.50;;;0.20;1.00;;;;;;5037955;28;20178;-41
2023/02/28 01:34:00;;;;;;;5.63;3.90;;;0.10;1.00;;;;;;5038296;28;20285;-43
2023/02/28 01:36:26;;;;;;;4.33;3.40;;;0.10;1.00;;;;;;5038258;28;20598;-42
2023/02/28 01:38:52;;;;;;;5.20;3.70;;;0.10;1.00;;;;;;5037264;28;20564;-42
2023/02/28 01:41:19;;;;;;;4.10;3.70;;;0.10;1.00;;;;;;5037998;28;20186;-41
2023/02/28 01:43:44;;;;;;;5.13;3.70;;;0.10;1.00;;;;;;5038450;28;20834;-42
2023/02/28 01:46:11;;;;;;;4.53;3.97;;;0.10;1.00;;;;;;5038792;28;20475;-40
2023/02/28 01:49:02;;;;;;;7.73;3.97;;;0.00;1.00;;;;;;5039473;28;20178;-41
2023/02/28 01:51:45;;;;;;;4.53;3.70;;;0.00;1.00;;;;;;5038964;28;20429;-42
2023/02/28 01:54:14;;;;;;;4.13;3.73;;;0.00;1.00;;;;;;5036624;28;20424;-41
2023/02/28 01:56:47;;;;;;;4.33;3.43;;;0.00;1.00;;;;;;5037021;28;20743;-42
2023/02/28 01:59:20;;;;;;;4.73;4.30;;;0.00;1.00;;;;;;5036743;28;20568;-42
2023/02/28 02:01:46;;;;;;;6.17;3.80;;;0.00;1.00;;;;;;5037362;28;20433;-40
2023/02/28 02:04:12;;;;;;;5.70;3.87;;;0.00;1.00;;;;;;5037972;28;20535;-41
2023/02/28 02:06:42;;;;;;;4.07;3.53;;;0.00;1.00;;;;;;5039358;28;20193;-41
2023/02/28 02:09:08;;;;;;;5.03;3.70;;;-0.10;1.00;;;;;;5038083;28;20167;-45
2023/02/28 02:11:34;;;;;;;4.90;3.70;;;0.00;1.00;;;;;;5039254;28;20463;-42
2023/02/28 02:14:12;;;;;;;5.00;3.33;;;-0.10;1.00;;;;;;5038277;28;20872;-42
2023/02/28 02:16:47;;;;;;;4.40;4.00;;;0.00;1.00;;;;;;5039298;28;20892;-42
2023/02/28 02:20:10;;;;;;;4.70;4.20;;;-0.10;1.00;;;;;;5038599;28;20815;-41
2023/02/28 02:22:42;;;;;;;5.47;3.63;;;-0.10;1.00;;;;;;4996778;28;20443;-42
2023/02/28 02:25:10;;;;;;;5.00;3.57;;;-0.10;1.00;;;;;;4996205;28;20574;-41
2023/02/28 02:27:55;;;;;;;9.20;4.67;;;-0.10;1.00;;;;;;5018284;28;20535;-41
2023/02/28 02:30:44;;;;;;;5.80;4.30;;;-0.10;1.00;;;;;;5036735;28;20464;-41
2023/02/28 02:33:42;;;;;;;4.87;4.00;;;-0.10;1.00;;;;;;5036475;28;20425;-41
2023/02/28 02:36:33;;;;;;;4.93;3.80;;;-0.10;1.00;;;;;;5015821;28;20492;-42
2023/02/28 02:39:04;;;;;;;5.20;4.10;;;-0.10;1.00;;;;;;5037599;28;20450;-41
2023/02/28 02:41:48;;;;;;;5.07;4.07;;;-0.10;1.00;;;;;;5038076;28;20441;-42
2023/02/28 02:44:40;;;;;;;4.93;4.20;;;-0.10;1.00;;;;;;5038365;28;20413;-42
2023/02/28 02:47:12;;;;;;;4.70;4.10;;;-0.10;1.00;;;;;;5037376;28;20527;-41
2023/02/28 02:49:40;;;;;;;5.50;4.33;;;-0.10;1.00;;;;;;5038186;28;20397;-41
2023/02/28 02:52:09;;;;;;;7.23;4.10;;;-0.10;1.00;;;;;;5038491;28;21014;-41
2023/02/28 02:54:43;;;;;;;5.97;4.30;;;-0.10;1.00;;;;;;5036910;28;20439;-40
2023/02/28 02:57:40;;;;;;;4.57;3.60;;;-0.10;1.00;;;;;;5037589;28;20496;-41
2023/02/28 03:00:08;;;;;;;5.90;4.50;;;-0.10;1.00;;;;;;5024695;28;20452;-43
2023/02/28 03:02:35;;;;;;;4.90;3.90;;;0.00;1.00;;;;;;5036731;28;20448;-41
2023/02/28 03:05:06;;;;;;;5.10;4.60;;;0.00;1.00;;;;;;5036371;28;20409;-41
2023/02/28 03:07:32;;;;;;;5.27;4.13;;;0.00;1.00;;;;;;5035729;28;20977;-41
2023/02/28 03:09:58;;;;;;;8.50;4.63;;;0.00;1.00;;;;;;5037490;28;20409;-42
2023/02/28 03:12:32;;;;;;;5.70;4.20;;;0.00;1.00;;;;;;5037186;28;20217;-42
2023/02/28 03:15:25;;;;;;;5.47;4.97;;;0.00;1.00;;;;;;5036821;28;20408;-42
2023/02/28 03:18:22;;;;;;;6.53;5.00;;;0.00;1.00;;;;;;5037415;28;20468;-43
2023/02/28 03:21:07;;;;;;;5.63;4.57;;;0.00;1.00;;;;;;5032073;28;20654;-42
2023/02/28 03:23:43;;;;;;;5.27;4.27;;;0.10;1.00;;;;;;5037079;28;20409;-42
2023/02/28 03:26:17;;;;;;;5.57;4.80;;;0.10;1.00;;;;;;5038115;28;20487;-43
2023/02/28 03:29:05;;;;;;;4.93;4.27;;;0.10;1.00;;;;;;5037845;28;20921;-43
2023/02/28 03:31:35;;;;;;;5.40;4.60;;;0.10;1.00;;;;;;5037815;28;20454;-42
2023/02/28 03:34:41;;;;;;;5.80;5.00;;;0.10;1.00;;;;;;5036919;28;20421;-41
2023/02/28 03:37:17;;;;;;;5.97;5.37;;;0.10;1.00;;;;;;4996554;28;20474;-42
2023/02/28 03:39:47;;;;;;;5.87;5.20;;;0.10;1.00;;;;;;4996275;28;20423;-41
2023/02/28 03:42:17;;;;;;;5.03;4.43;;;0.20;1.00;;;;;;5019561;28;20429;-41
2023/02/28 03:44:48;;;;;;;6.37;4.90;;;0.20;1.00;;;;;;5037733;28;20418;-42
2023/02/28 03:47:17;;;;;;;5.90;4.87;;;0.20;1.00;;;;;;5036642;28;20433;-41
2023/02/28 03:49:49;;;;;;;6.13;5.53;;;0.20;1.00;;;;;;5036919;28;20421;-43
2023/02/28 03:52:17;;;;;;;6.50;5.33;;;0.20;1.00;;;;;;5036691;28;20433;-41
2023/02/28 03:54:48;;;;;;;6.70;6.00;;;0.20;1.00;;;;;;5038031;28;20447;-42
2023/02/28 03:57:56;;;;;;;7.80;5.03;;;0.20;1.00;;;;;;5036070;28;20472;-43
2023/02/28 04:00:29;;;;;;;7.03;5.50;;;0.30;1.00;;;;;;5037594;28;20417;-41
2023/02/28 04:02:55;;;;;;;6.43;5.27;;;0.30;1.00;;;;;;5036548;28;20491;-45
2023/02/28 04:05:21;;;;;;;5.63;5.13;;;0.30;1.00;;;;;;5037192;28;20528;-42
2023/02/28 04:07:48;;;;;;;7.20;5.63;;;0.30;1.00;;;;;;5016121;28;20171;-41
2023/02/28 04:10:14;;;;;;;6.50;4.77;;;0.30;1.00;;;;;;5017641;28;20509;-41
2023/02/28 04:12:40;;;;;;;5.90;5.30;;;0.30;1.00;;;;;;5015978;28;20702;-41
2023/02/28 04:15:06;;;;;;;6.23;5.63;;;0.40;1.00;;;;;;5015679;28;20505;-41
2023/02/28 04:17:32;;;;;;;6.97;5.50;;;0.40;1.00;;;;;;5018241;28;20210;-42
2023/02/28 04:19:58;;;;;;;5.70;5.20;;;0.40;1.00;;;;;;5021151;28;20417;-41
2023/02/28 04:22:26;;;;;;;7.03;5.60;;;0.40;1.00;;;;;;5020444;28;20380;-41
2023/02/28 04:24:54;;;;;;;6.00;5.40;;;0.40;1.00;;;;;;5019234;28;20182;-45
2023/02/28 04:27:20;;;;;;;6.53;5.50;;;0.40;1.00;;;;;;5018632;28;20425;-44
2023/02/28 04:29:46;;;;;;;6.47;5.30;;;0.50;1.00;;;;;;5019566;28;20828;-42
2023/02/28 04:32:12;;;;;;;6.50;5.03;;;0.50;1.00;;;;;;5019319;28;20461;-42
2023/02/28 04:34:37;;;;;;;6.23;5.30;;;0.50;1.00;;;;;;5018616;28;20202;-42
2023/02/28 04:37:03;;;;;;;5.97;5.37;;;0.50;1.00;;;;;;5018321;28;20293;-44
2023/02/28 04:39:29;;;;;;;6.20;5.50;;;0.50;1.00;;;;;;5018088;28;20189;-43
2023/02/28 04:41:55;;;;;;;7.60;5.30;;;0.50;1.00;;;;;;5017135;28;20186;-42
2023/02/28 04:44:21;;;;;;;6.23;5.40;;;0.50;1.00;;;;;;5016786;28;20210;-43
2023/02/28 04:46:47;;;;;;;7.60;5.23;;;0.50;1.00;;;;;;5019012;28;20441;-42
2023/02/28 04:49:13;;;;;;;7.03;5.37;;;0.50;1.00;;;;;;5019553;28;20812;-41
2023/02/28 04:51:39;;;;;;;7.53;6.37;;;0.60;1.00;;;;;;5019824;28;20429;-42
2023/02/28 04:54:05;;;;;;;7.53;5.80;;;0.60;1.00;;;;;;5020334;28;20418;-42
2023/02/28 04:56:31;;;;;;;5.97;5.33;;;0.60;1.00;;;;;;5019949;28;20461;-43
2023/02/28 04:58:56;;;;;;;8.63;6.50;;;0.60;1.00;;;;;;5020654;28;20243;-42
2023/02/28 05:01:27;;;;;;;6.93;6.27;;;0.60;1.00;;;;;;5020771;28;20286;-42
2023/02/28 05:03:55;;;;;;;5.97;5.37;;;0.60;1.00;;;;;;5020868;28;20529;-43
2023/02/28 05:06:21;;;;;;;7.10;6.10;;;0.60;1.00;;;;;;5020411;28;20782;-43
2023/02/28 05:08:47;;;;;;;6.03;5.20;;;0.60;1.00;;;;;;5020573;28;20470;-44
2023/02/28 05:11:22;;;;;;;8.63;5.70;;;0.60;1.00;;;;;;5020427;28;20433;-40
2023/02/28 05:13:48;;;;;;;7.53;6.50;;;0.60;1.00;;;;;;5020386;28;20533;-41
2023/02/28 05:16:15;;;;;;;6.80;6.20;;;0.60;1.00;;;;;;5019142;28;20473;-42
2023/02/28 05:18:41;;;;;;;7.07;6.37;;;0.60;1.00;;;;;;5017771;28;20422;-42
2023/02/28 05:21:24;;;;;;;6.90;6.17;;;0.60;1.00;;;;;;5019481;28;20448;-42
2023/02/28 05:23:50;;;;;;;10.00;6.20;;;0.60;1.00;;;;;;5019209;28;20441;-42
2023/02/28 05:26:15;;;;;;;7.50;6.77;;;0.70;1.00;;;;;;5017297;28;20441;-42
2023/02/28 05:28:41;;;;;;;6.97;6.27;;;0.70;1.00;;;;;;5015574;28;20443;-41
2023/02/28 05:31:10;;;;;;;7.70;6.87;;;0.60;2.30;;;;;;5017943;28;20179;-40
2023/02/28 05:33:36;;;;;;;6.13;5.53;;;0.70;4.80;;;;;;5016779;28;20183;-41
2023/02/28 05:36:02;;;;;;;6.40;5.80;;;0.70;5.20;;;;;;5016176;28;20461;-44
2023/02/28 05:38:27;;;;;;;6.83;6.03;;;0.70;8.00;;;;;;5015929;28;20588;-43
2023/02/28 05:40:53;;;;;;;6.70;5.83;;;0.70;10.00;;;;;;5014235;28;20408;-43
2023/02/28 05:43:18;;;;;;;7.00;5.87;;;0.70;14.30;;;;;;5014955;28;20212;-41
2023/02/28 05:45:44;;;;;;;9.67;7.03;;;0.70;14.40;;;;;;5016147;28;20180;-42
2023/02/28 05:48:11;;;;;;;7.47;5.63;;;0.70;16.80;;;;;;5016035;28;20280;-42
2023/02/28 05:50:37;;;;;;;6.63;6.03;;;0.80;26.80;;;;;;5015603;28;20569;-42
2023/02/28 05:53:03;;;;;;;6.57;5.87;;;0.80;30.80;;;;;;5018317;28;20767;-43
2023/02/28 05:55:29;;;;;;;7.80;7.07;;;0.80;31.60;;;;;;5017744;28;20282;-41
2023/02/28 05:57:55;;;;;;;7.07;6.37;;;0.80;39.30;;;;;;5017326;28;20848;-41
2023/02/28 06:00:21;;;;;;;8.47;6.70;;;0.70;45.80;;;;;;5016686;28;20273;-41
2023/02/28 06:02:47;;;;;;;6.30;5.70;;;0.80;52.30;;;;;;5014013;28;20560;-40
2023/02/28 06:05:18;;;;;;;7.83;6.83;;;0.80;58.60;;;;;;5017352;28;20518;-41
2023/02/28 06:07:44;;;;;;;9.70;6.87;;;0.80;65.60;;;;;;5018069;28;20189;-42
2023/02/28 06:10:10;;;;;;;7.30;6.37;;;0.80;84.80;;;;;;5016115;28;20409;-41
2023/02/28 06:12:37;;;;;;;7.47;6.60;;;0.80;95.20;;;;;;5015543;28;20194;-41
2023/02/28 06:15:03;;;;;;;7.37;6.67;;;0.80;99.90;;;;;;5014125;28;20406;-41
2023/02/28 06:17:29;;;;;;;8.07;7.10;;;0.80;99.90;;;;;;5011092;28;20484;-43
2023/02/28 06:19:54;;;;;;;6.97;6.27;;;0.80;99.90;;;;;;5011854;28;20768;-40
2023/02/28 06:22:20;;;;;;;8.47;6.73;;;0.80;99.90;;;;;;5010970;28;20202;-42
2023/02/28 06:24:45;;;;;;;7.83;7.03;;;0.80;99.90;;;;;;5013963;28;20250;-41
2023/02/28 06:27:11;;;;;;;8.40;7.33;;;0.80;99.90;;;;;;5015008;28;20191;-42
2023/02/28 06:29:39;;;;;;;8.63;7.77;;;0.80;99.90;;;;;;5014389;28;20260;-43
2023/02/28 06:32:05;;;;;;;9.03;6.73;;;0.90;99.90;;;;;;5010743;28;20195;-42
2023/02/28 06:34:33;;;;;;;8.33;7.50;;;0.90;99.90;;;;;;5012625;28;20715;-42
2023/02/28 06:37:01;;;;;;;7.33;6.63;;;0.90;99.90;;;;;;5012226;28;20600;-41
2023/02/28 06:39:28;;;;;;;9.03;8.13;;;0.90;99.90;;;;;;5011939;28;20919;-41
2023/02/28 06:41:54;;;;;;;8.47;7.57;;;0.90;99.90;;;;;;5012858;28;20459;-41
2023/02/28 06:44:19;;;;;;;7.97;6.60;;;0.90;99.90;;;;;;5015328;28;20489;-41
2023/02/28 06:46:45;;;;;;;7.77;7.03;;;0.90;99.90;;;;;;5016377;28;20206;-41
2023/02/28 06:49:11;;;;;;;9.20;7.27;;;1.00;99.90;;;;;;5015196;28;20329;-41
2023/02/28 06:51:39;;;;;;;7.10;6.50;;;1.00;99.90;;;;;;5015989;28;20723;-42
2023/02/28 06:54:06;;;;;;;7.70;6.83;;;1.00;99.90;;;;;;5014179;28;20434;-42
2023/02/28 06:56:32;;;;;;;9.00;7.70;;;1.00;99.90;;;;;;5013953;28;20902;-41
2023/02/28 06:58:58;;;;;;;8.10;6.83;;;1.10;99.90;;;;;;5013769;28;20536;-40
2023/02/28 07:01:24;;;;;;;8.80;7.90;;;1.10;99.90;;;;;;5014531;28;20414;-41
2023/02/28 07:03:52;;;;;;;8.40;7.50;;;1.10;99.90;;;;;;5014429;28;20574;-41
2023/02/28 07:06:24;;;;;;;10.30;7.97;;;1.10;99.90;;;;;;5015522;28;20315;-42
2023/02/28 07:08:51;;;;;;;8.47;7.07;;;1.10;99.90;;;;;;5013170;28;20430;-43
2023/02/28 07:11:19;;;;;;;10.53;7.70;;;1.20;99.90;;;;;;5014189;28;20480;-42
2023/02/28 07:13:44;;;;;;;8.80;7.90;;;1.20;99.90;;;;;;5012980;28;20441;-41
2023/02/28 07:16:11;;;;;;;8.43;7.63;;;1.20;99.90;;;;;;5014883;28;20898;-42
2023/02/28 07:18:37;;;;;;;9.93;8.50;;;1.30;99.90;;;;;;5015868;28;20263;-43
2023/02/28 07:21:06;;;;;;;8.30;7.50;;;1.30;97.70;;;;;;5014943;28;20508;-41
2023/02/28 07:23:32;;;;;;;12.43;8.43;;;1.30;82.60;;;;;;5015166;28;20529;-42
2023/02/28 07:25:58;;;;;;;9.10;8.00;;;1.40;57.10;;;;;;5015005;28;20897;-42
2023/02/28 07:28:24;;;;;;;8.03;7.07;;;1.40;47.20;;;;;;5013721;28;20191;-40
2023/02/28 07:30:49;;;;;;;9.10;8.23;;;1.50;33.10;;;;;;5012993;28;20829;-40
2023/02/28 07:33:15;;;;;;;9.20;8.27;;;1.50;26.20;;;;;;5013936;28;20444;-40
2023/02/28 07:35:41;;;;;;;8.20;7.30;;;1.50;19.40;;;;;;5015669;28;20205;-40
2023/02/28 07:38:09;;;;;;;9.60;8.33;;;1.60;14.30;;;;;;5013018;28;20434;-42
2023/02/28 07:40:36;;;;;;;10.27;9.13;;;1.60;2.30;;;;;;5012565;28;20450;-42
2023/02/28 07:43:02;;;;;;;10.13;8.23;;;1.70;1.00;;;;;;5011886;28;20859;-41
2023/02/28 07:45:28;;;;;;;9.33;8.30;;;1.70;1.00;;;;;;5012136;28;20472;-42
2023/02/28 07:47:55;;;;;;;9.73;8.73;;;1.80;1.00;;;;;;5011982;28;20437;-42
2023/02/28 07:50:20;;;;;;;9.50;8.37;;;1.80;1.00;;;;;;5012962;28;20414;-41
2023/02/28 07:52:46;;;;;;;10.67;9.67;;;1.90;1.00;;;;;;5010285;28;20468;-42
2023/02/28 07:55:13;;;;;;;10.07;7.80;;;1.90;1.00;;;;;;5012225;28;20545;-41
2023/02/28 07:57:39;;;;;;;8.80;8.00;;;2.00;1.00;;;;;;5012240;28;20191;-41
2023/02/28 08:00:09;;;;;;;11.97;9.93;;;2.10;1.00;;;;;;5014031;28;20488;-43
2023/02/28 08:02:35;;;;;;;9.43;8.50;;;2.10;1.00;;;;;;5014211;28;20461;-39
2023/02/28 08:05:01;;;;;;;10.33;9.27;;;2.10;1.00;;;;;;5014770;28;20461;-41
2023/02/28 08:07:26;;;;;;;10.93;9.73;;;2.20;1.00;;;;;;5015038;28;20442;-41
2023/02/28 08:09:52;;;;;;;11.20;9.77;;;2.20;1.00;;;;;;5013774;28;20426;-41
2023/02/28 08:12:19;;;;;;;9.87;8.90;;;2.30;1.00;;;;;;5016773;28;20205;-40
2023/02/28 08:14:44;;;;;;;10.17;9.20;;;2.30;1.00;;;;;;5034834;28;20181;-42
2023/02/28 08:17:11;;;;;;;10.63;9.20;;;2.40;1.00;;;;;;5035475;28;20473;-42
2023/02/28 08:19:36;;;;;;;10.07;8.77;;;2.40;1.00;;;;;;5036221;28;20189;-41
2023/02/28 08:22:02;;;;;;;10.23;9.13;;;2.50;1.00;;;;;;5034973;28;20823;-40
2023/02/28 08:24:28;;;;;;;10.60;9.50;;;2.50;1.00;;;;;;5034545;28;20552;-41
2023/02/28 08:26:54;;;;;;;10.83;9.77;;;2.50;1.00;;;;;;5036082;28;20274;-41
2023/02/28 08:29:20;;;;;;;11.83;10.63;;;2.60;1.00;;;;;;5035609;28;20473;-43
2023/02/28 08:31:45;;;;;;;11.57;10.37;;;2.60;1.00;;;;;;5035475;28;20417;-41
2023/02/28 08:34:13;;;;;;;10.73;9.73;;;2.60;1.00;;;;;;5034873;28;20194;-44
2023/02/28 08:36:39;;;;;;;11.37;10.27;;;2.70;1.00;;;;;;5033104;28;20229;-43
2023/02/28 08:39:07;;;;;;;10.67;9.60;;;2.70;1.00;;;;;;5033639;28;20630;-42
2023/02/28 08:41:33;;;;;;;10.70;9.60;;;2.70;1.00;;;;;;5033415;28;20459;-41
2023/02/28 08:44:00;;;;;;;11.20;10.00;;;2.80;1.00;;;;;;5033414;28;20437;-43
2023/02/28 08:46:26;;;;;;;11.00;8.43;;;2.80;1.00;;;;;;5034146;28;20726;-40
2023/02/28 08:48:59;;;;;;;11.00;9.90;;;2.90;1.00;;;;;;5033614;28;20438;-41
2023/02/28 08:51:27;;;;;;;10.53;8.83;;;3.00;1.00;;;;;;5034149;28;20409;-41
2023/02/28 08:53:54;;;;;;;10.00;9.10;;;3.00;1.00;;;;;;5034107;28;20490;-40
2023/02/28 08:56:20;;;;;;;11.17;9.53;;;3.10;1.00;;;;;;5034663;28;20452;-40
2023/02/28 08:58:47;;;;;;;11.20;9.93;;;3.20;1.00;;;;;;5035553;28;20559;-41
2023/02/28 09:01:18;;;;;;;11.30;10.10;;;3.20;1.00;;;;;;5035895;28;20411;-40
2023/02/28 09:03:45;;;;;;;11.60;10.47;;;3.30;1.00;;;;;;5037544;28;20531;-40
2023/02/28 09:06:12;;;;;;;10.73;9.63;;;3.40;1.00;;;;;;5039867;28;20719;-40
2023/02/28 09:08:39;;;;;;;12.07;10.30;;;3.40;1.00;;;;;;5038908;28;20440;-41
2023/02/28 09:11:05;;;;;;;10.93;9.80;;;3.50;1.00;;;;;;5037274;28;20491;-41
2023/02/28 09:13:34;;;;;;;11.17;9.17;;;3.50;1.00;;;;;;5019106;28;20439;-40
2023/02/28 09:16:02;;;;;;;12.20;10.87;;;3.60;1.00;;;;;;5035112;28;20485;-41
2023/02/28 09:18:28;;;;;;;10.67;9.57;;;3.70;1.00;;;;;;5035821;28;20482;-40
2023/02/28 09:20:54;;;;;;;9.63;8.70;;;3.70;1.00;;;;;;5035707;28;20512;-40
2023/02/28 09:23:20;;;;;;;10.27;9.27;;;3.70;1.00;;;;;;5034616;28;20548;-41
2023/02/28 09:25:52;;;;;;;11.27;9.90;;;3.80;1.00;;;;;;5032761;28;20213;-40
2023/02/28 09:28:19;;;;;;;11.13;10.03;;;3.80;1.00;;;;;;5033768;28;20749;-42
2023/02/28 09:30:46;;;;;;;11.00;9.80;;;3.90;1.00;;;;;;5017195;28;20575;-42
2023/02/28 09:33:12;;;;;;;10.80;9.57;;;3.90;1.00;;;;;;5035138;28;20448;-42
2023/02/28 09:35:38;;;;;;;11.43;10.00;;;4.00;1.00;;;;;;5035103;28;20461;-41
2023/02/28 09:38:04;;;;;;;11.73;9.43;;;4.00;1.00;;;;;;5035142;28;20441;-42
2023/02/28 09:40:31;;;;;;;9.77;8.77;;;4.10;1.00;;;;;;5037378;28;20177;-42
2023/02/28 09:42:57;;;;;;;12.80;10.57;;;4.10;1.00;;;;;;5036723;28;20449;-42
2023/02/28 09:45:33;;;;;;;11.40;10.20;;;4.20;1.00;;;;;;5034948;28;20413;-42
2023/02/28 09:48:04;;;;;;;11.30;9.50;;;4.30;1.00;;;;;;5035276;28;20635;-39
2023/02/28 09:50:39;;;;;;;11.60;9.60;;;4.30;1.00;;;;;;5035787;28;20701;-41
2023/02/28 09:53:23;;;;;;;11.00;9.97;;;4.40;1.00;;;;;;5036267;28;20433;-43
2023/02/28 09:55:51;;;;;;;10.63;9.63;;;4.50;1.00;;;;;;5036376;28;20453;-40
2023/02/28 09:58:28;;;;;;;10.77;9.77;;;4.60;1.00;;;;;;5036565;28;20637;-41
2023/02/28 10:01:17;;;;;;;11.23;9.60;;;4.70;1.00;;;;;;5035647;28;20720;-41
2023/02/28 10:03:57;;;;;;;10.77;9.60;;;4.80;1.00;;;;;;5035596;28;20700;-43
2023/02/28 10:06:27;;;;;;;10.70;9.33;;;4.90;1.00;;;;;;5032050;28;20420;-41
2023/02/28 10:09:04;;;;;;;11.17;10.07;;;5.00;1.00;;;;;;5034540;28;20452;-42
2023/02/28 10:11:32;;;;;;;10.90;9.80;;;5.00;1.00;;;;;;5035481;28;20446;-43
2023/02/28 10:14:05;;;;;;;11.37;10.17;;;5.10;1.00;;;;;;5035341;28;20457;-41
2023/02/28 10:16:46;;;;;;;10.50;9.50;;;5.10;1.00;;;;;;5034166;28;20456;-41
2023/02/28 10:19:20;;;;;;;10.50;9.40;;;5.20;1.00;;;;;;5034068;28;20431;-42
2023/02/28 10:21:57;;;;;;;9.73;8.73;;;5.30;1.00;;;;;;5034808;28;20458;-41
2023/02/28 10:24:43;;;;;;;10.70;9.60;;;5.40;1.00;;;;;;5033407;28;20562;-41
2023/02/28 10:27:15;;;;;;;10.87;9.77;;;5.60;1.00;;;;;;5034973;28;20713;-43
2023/02/28 10:29:43;;;;;;;10.37;9.33;;;5.60;1.00;;;;;;5034216;28;20527;-41
2023/02/28 10:32:12;;;;;;;11.23;10.13;;;5.80;1.00;;;;;;5032884;28;20455;-42
2023/02/28 10:34:37;;;;;;;11.13;10.03;;;6.00;1.00;;;;;;5032962;28;20413;-42
2023/02/28 10:37:07;;;;;;;12.30;9.77;;;6.20;1.00;;;;;;5035125;28;20952;-40
2023/02/28 10:39:39;;;;;;;10.63;9.57;;;6.40;1.00;;;;;;5018077;28;20244;-41
2023/02/28 10:42:05;;;;;;;11.43;10.43;;;6.60;1.00;;;;;;5034374;28;20768;-42
2023/02/28 10:44:32;;;;;;;10.97;9.70;;;6.90;1.00;;;;;;5033593;28;20454;-41
2023/02/28 10:46:58;;;;;;;10.70;9.73;;;7.20;1.00;;;;;;5032718;28;20420;-43
2023/02/28 10:49:26;;;;;;;10.90;9.80;;;7.50;1.00;;;;;;5032321;28;20194;-42
2023/02/28 10:51:59;;;;;;;11.37;10.27;;;7.80;1.00;;;;;;5016691;28;20820;-44
2023/02/28 10:54:37;;;;;;;11.50;10.07;;;8.30;1.00;;;;;;5033221;28;20799;-44
2023/02/28 10:57:19;;;;;;;10.30;9.23;;;8.70;1.00;;;;;;5033263;28;20472;-42
2023/02/28 10:59:45;;;;;;;9.37;8.57;;;9.00;1.00;;;;;;5032737;28;20414;-42
2023/02/28 11:02:34;;;;;;;10.37;9.37;;;9.30;1.00;;;;;;5032697;28;20905;-41
2023/02/28 11:05:00;;;;;;;10.70;9.70;;;9.50;1.00;;;;;;5034357;28;20441;-42
2023/02/28 11:07:27;;;;;;;9.20;8.20;;;9.70;1.00;;;;;;5034080;28;20828;-41
2023/02/28 11:09:55;;;;;;;10.30;9.30;;;10.10;1.00;;;;;;5033370;28;20201;-41
2023/02/28 11:12:29;;;;;;;9.60;8.70;;;10.30;1.00;;;;;;5034632;28;20433;-41
2023/02/28 11:15:06;;;;;;;10.53;9.53;;;10.50;1.00;;;;;;5035335;28;20413;-41
2023/02/28 11:17:33;;;;;;;11.23;10.03;;;10.80;1.00;;;;;;5033999;28;20499;-40
2023/02/28 11:20:03;;;;;;;10.67;9.67;;;10.90;1.00;;;;;;5016869;28;20831;-42
2023/02/28 11:22:31;;;;;;;10.80;9.80;;;10.80;1.00;;;;;;5032844;28;20424;-43
2023/02/28 11:25:03;;;;;;;10.50;9.47;;;10.80;1.00;;;;;;5034209;28;20566;-42
2023/02/28 11:27:33;;;;;;;11.40;10.30;;;10.80;1.00;;;;;;5016825;28;20441;-42
2023/02/28 11:29:59;;;;;;;9.43;8.63;;;10.60;1.00;;;;;;5034625;28;20531;-41
2023/02/28 11:32:30;;;;;;;11.27;10.17;;;10.80;1.00;;;;;;5033644;28;20432;-41
2023/02/28 11:35:11;;;;;;;9.83;9.00;;;11.40;1.00;;;;;;5033669;28;20428;-42
2023/02/28 11:37:37;;;;;;;9.97;8.97;;;12.90;1.00;;;;;;5034504;28;20457;-42
2023/02/28 11:40:13;;;;;;;10.00;9.10;;;14.50;1.00;;;;;;5034555;28;20516;-42
2023/02/28 11:42:59;;;;;;;9.30;8.50;;;16.00;1.00;;;;;;5015996;28;20484;-42
2023/02/28 11:45:44;;;;;;;10.93;9.87;;;17.90;1.00;;;;;;5035518;28;20521;-42
2023/02/28 11:48:41;;;;;;;10.40;9.50;;;19.10;1.00;;;;;;5032909;28;20425;-42
2023/02/28 11:51:27;;;;;;;10.27;9.17;;;20.90;1.00;;;;;;5033087;28;20520;-41
2023/02/28 11:54:05;;;;;;;9.37;8.57;;;22.40;1.00;;;;;;5029629;28;20433;-48
2023/02/28 11:56:38;;;;;;;10.87;9.93;;;23.40;1.00;;;;;;5033129;28;20482;-43
2023/02/28 11:59:29;;;;;;;9.80;8.90;;;23.70;1.00;;;;;;5033707;28;20443;-43
2023/02/28 12:02:00;;;;;;;10.07;9.17;;;24.10;1.00;;;;;;5035796;28;20419;-42
2023/02/28 12:05:04;;;;;;;10.83;9.93;;;24.20;1.00;;;;;;5036182;28;20417;-42
2023/02/28 12:07:51;;;;;;;9.67;8.87;;;24.20;1.00;;;;;;5034067;28;20451;-42
2023/02/28 12:10:26;;;;;;;10.93;9.83;;;24.80;1.00;;;;;;5033251;28;20428;-43
2023/02/28 12:12:58;;;;;;;10.27;9.47;;;24.80;1.00;;;;;;5032130;28;20439;-42
2023/02/28 12:15:35;;;;;;;10.13;9.27;;;25.20;1.00;;;;;;5029976;28;20421;-42
2023/02/28 12:18:11;;;;;;;9.87;9.07;;;25.70;1.00;;;;;;5029688;28;20424;-48
2023/02/28 12:20:52;;;;;;;9.80;9.00;;;25.40;1.00;;;;;;5030049;28;20429;-44
2023/02/28 12:24:12;;;;;;;10.20;9.40;;;25.00;1.00;;;;;;5011710;28;20433;-45
2023/02/28 12:26:45;;;;;;;10.40;9.60;;;24.20;1.00;;;;;;4989380;28;20431;-42
2023/02/28 12:29:24;;;;;;;9.77;8.97;;;23.50;1.00;;;;;;5031351;28;20987;-42
2023/02/28 12:32:18;;;;;;;10.30;9.30;;;24.50;1.00;;;;;;5029632;28;20416;-46
2023/02/28 12:34:49;;;;;;;10.03;9.23;;;25.80;1.00;;;;;;5030740;28;20459;-51
2023/02/28 12:37:20;;;;;;;10.00;9.03;;;26.20;1.00;;;;;;5027720;28;20883;-44
2023/02/28 12:39:48;;;;;;;9.40;8.60;;;26.90;1.00;;;;;;5033167;28;20772;-46
2023/02/28 12:42:20;;;;;;;10.63;9.73;;;27.00;1.00;;;;;;5034186;28;20706;-44
2023/02/28 12:44:59;;;;;;;10.23;9.37;;;27.20;1.00;;;;;;5032066;28;20449;-43
2023/02/28 12:47:25;;;;;;;11.03;10.13;;;27.50;1.00;;;;;;5034023;28;20714;-44
2023/02/28 12:50:07;;;;;;;10.70;9.90;;;27.40;1.00;;;;;;5035829;28;20503;-44
2023/02/28 12:53:00;;;;;;;9.87;9.07;;;27.60;1.00;;;;;;5034525;28;20458;-45
2023/02/28 12:56:15;;;;;;;9.43;8.70;;;27.80;1.00;;;;;;5035055;28;20453;-44
2023/02/28 12:58:49;;;;;;;8.93;8.23;;;28.00;1.00;;;;;;4977742;28;20466;-45
2023/02/28 13:01:25;;;;;;;9.10;8.40;;;29.20;1.00;;;;;;5032127;28;21020;-46
2023/02/28 13:04:28;;;;;;;9.53;8.83;;;30.00;1.00;;;;;;5033347;28;20687;-44
2023/02/28 13:07:09;;;;;;;9.90;9.10;;;31.10;1.00;;;;;;5032598;28;20843;-43
2023/02/28 13:09:35;;;;;;;10.23;9.43;;;31.20;1.00;;;;;;5032731;28;20395;-42
2023/02/28 13:12:00;;;;;;;9.67;8.77;;;31.00;1.00;;;;;;5032220;28;20636;-44
2023/02/28 13:14:28;;;;;;;9.13;8.43;;;31.30;1.00;;;;;;5033410;28;20421;-44
2023/02/28 13:17:22;;;;;;;8.37;7.67;;;31.80;1.00;;;;;;5035709;28;20287;-44
2023/02/28 13:19:53;;;;;;;9.37;8.67;;;32.70;1.00;;;;;;5022477;28;20403;-44